松山空港の過去48時間の天気

松山空港 (Matsuyama)

現在時刻: 4/27 14:00 JST (4/27 05:00 UTC) 以下の時間は現地時間です。

過去48時間のMETAR気象情報
時間 風向 風速(m/s) 視程 気温(℃) 湿度(%) 気圧(hPa) 天気現象
27 13:00 南南西 4 10km以上 19 60 1011
27 12:00 3 10km以上 17 72 1011
27 11:00 南南西 4 10km以上 17 77 1012
27 10:00 南西 2 10km以上 17 77 1012
27 09:00 南南西 2 10km以上 16 82 1012
27 08:00 南西 2 9,000m 15 94 1012
27 07:00 不定 1 9,000m 14 94 1012
27 06:10 1 10km以上 13 94 1012
26 21:00 不定 1 10km以上 15 77 1012
26 20:00 不定 1 10km以上 15 72 1012
26 19:00 不定 1 10km以上 15 77 1012
26 18:00 不定 1 10km以上 15 77 1012
26 17:00 西南西 3 10km以上 17 68 1012
26 16:00 南西 3 10km以上 16 68 1012
26 15:00 南西 3 10km以上 17 63 1012
26 14:00 4 10km以上 17 55 1012
26 13:00 6 10km以上 16 63 1013
26 12:00 7 10km以上 17 63 1013
26 11:00 4 10km以上 16 68 1014
26 10:00 北西 3 10km以上 15 67 1014
26 09:00 3 10km以上 14 77 1014
26 08:00 不定 1 10km以上 13 77 1014
26 07:00 2 10km以上 11 87 1014
26 06:10 不定 1 10km以上 10 87 1013
25 21:00 北北東 4 10km以上 14 67 1011
25 20:00 北北東 5 10km以上 15 63 1010
25 19:00 8 10km以上 15 59 1009
25 18:00 北北東 8 10km以上 16 68 1009
25 17:00 北北東 6 10km以上 17 63 1009
25 16:00 5 10km以上 18 64 1008
25 15:00 5 10km以上 18 64 1008
RJOM 270400Z 20008KT 9999 FEW030 BKN070 19/11 Q1011
RJOM 270300Z VRB06KT 9999 FEW030 BKN060 17/12 Q1011
RJOM 270200Z 21007KT 180V240 9999 FEW030 BKN060 17/13 Q1012
RJOM 270100Z 22004KT 140V310 9999 FEW030 SCT060 BKN080 17/13 Q1012
RJOM 270000Z 21004KT 090V240 9999 FEW030 SCT080 BKN140 16/13 Q1012
RJOM 262300Z 22004KT 160V240 9000 FEW020 BKN160 BKN/// 15/14 Q1012
RJOM 262200Z VRB01KT 9000 FEW030 BKN160 BKN/// 14/13 Q1012
RJOM 262110Z 17002KT 9999 FEW030 SCT170 BKN/// 13/12 Q1012 RMK 1CU030 3AC170 A2989
RJOM 261200Z VRB02KT 9999 FEW030 BKN180 15/11 Q1012
RJOM 261100Z VRB02KT 9999 FEW030 SCT160 BKN180 15/10 Q1012
RJOM 261000Z VRB02KT 9999 FEW030 BKN180 BKN/// 15/11 Q1012
RJOM 260900Z VRB02KT 9999 FEW030 BKN180 BKN/// 15/11 Q1012
RJOM 260800Z 24005KT 9999 FEW030 SCT180 BKN/// 17/11 Q1012
RJOM 260700Z 23005KT 9999 FEW030 BKN/// 16/10 Q1012
RJOM 260600Z 23006G16KT 190V330 9999 FEW030 BKN/// 17/10 Q1012
RJOM 260500Z 36008KT 9999 FEW030 BKN/// 17/08 Q1012
RJOM 260400Z 35012KT 9999 FEW030 BKN/// 16/09 Q1013
RJOM 260300Z 36014KT 9999 FEW030 BKN/// 17/10 Q1013
RJOM 260200Z 35008KT 9999 FEW030 BKN/// 16/10 Q1014
RJOM 260100Z 32006KT 290V360 9999 FEW030 BKN/// 15/09 Q1014
RJOM 260000Z 36005KT 310V040 9999 FEW030 BKN/// 14/10 Q1014
RJOM 252300Z VRB02KT 9999 FEW025 BKN/// 13/09 Q1014
RJOM 252200Z 17003KT 140V200 9999 FEW025 BKN/// 11/09 Q1014
RJOM 252110Z VRB02KT 9999 FEW030 BKN/// 10/08 Q1013 RMK 1CU030 A2994
RJOM 251200Z 02008KT 9999 FEW030 14/08 Q1011
RJOM 251100Z 02010KT 9999 FEW030 15/08 Q1010
RJOM 251000Z 01016KT 9999 FEW030 SCT/// 15/07 Q1009
RJOM 250900Z 03016KT 9999 FEW030 BKN/// 16/10 Q1009
RJOM 250800Z 03012KT 9999 FEW025 BKN/// 17/10 Q1009
RJOM 250700Z 36010KT 9999 FEW025 BKN045 18/11 Q1008
RJOM 250600Z 01010KT 9999 FEW020 SCT045 BKN080 18/11 Q1008